EFMA

Mariehamn Airport

Finland
METAR EFMA 241150Z AUTO 02007KT 360V070 CAVOK M08/M14 Q1039
Observed Flight Rules
Feb-24 @ 11:50 UTC (29 minutes ago) Visual Flight Rules
Wind Visibility Clouds
20° at 7 knots 10,000+ meters
  • Clear skies
Temperatures Readings
Current -8°C / 18°F
Dewpoint -14°C / 7°F
Humidity 62%
Altimeter 30.68" Hg
Pressure 1039 hPa
Elevation 6
METAR EFMA 241150Z AUTO 02007KT 360V070 CAVOK M08/M14 Q1039
Observed Flight Rules
Feb-24 @ 11:50 UTC
(29 minutes ago)
VFR
Wind Visibility
20° at 7 knots 10,000+ meters
Clouds
  • Clear skies
Temperature Dewpoint
-8°C / 18°F -14°C / 7°F
Humidity Altimeter Pressure
62% 30.68" Hg 1039 hPa